Time;durP1;ratioP1;P1;durP2;ratioP2;P2;SDS_P1;SDS_P2;PMS_P1;PMS_P2;Temp;Humidity;BMP_temperature;BMP_pressure;BME280_temperature;BME280_humidity;BME280_pressure;Samples;Min_cycle;Max_cycle;Signal;HPM_P1;HPM_P2
2023/07/11 00:00:57;;;;;;;1.20;1.20;;;22.70;74.90;;;;;;5071593;28;20125;-78
2023/07/11 00:03:23;;;;;;;1.63;1.52;;;22.70;75.40;;;;;;5075459;28;20017;-78
2023/07/11 00:06:04;;;;;;;1.55;1.48;;;22.70;75.70;;;;;;5072558;28;20119;-78
2023/07/11 00:08:30;;;;;;;1.80;1.70;;;22.60;76.10;;;;;;5073683;28;20040;-78
2023/07/11 00:10:56;;;;;;;1.90;1.80;;;22.60;76.30;;;;;;5084679;28;20009;-79
2023/07/11 00:13:22;;;;;;;1.85;1.75;;;22.60;76.50;;;;;;5096249;28;20039;-78
2023/07/11 00:16:03;;;;;;;2.30;2.20;;;22.50;76.70;;;;;;5095994;28;20036;-78
2023/07/11 00:18:30;;;;;;;2.28;2.08;;;22.50;76.90;;;;;;5097164;28;20020;-78
2023/07/11 00:20:55;;;;;;;2.33;2.13;;;22.50;77.20;;;;;;5096634;28;20028;-77
2023/07/11 00:23:21;;;;;;;2.20;2.03;;;22.50;77.30;;;;;;5096509;28;20072;-78
2023/07/11 00:25:47;;;;;;;2.50;2.30;;;22.50;77.40;;;;;;5087036;28;20051;-78
2023/07/11 00:28:13;;;;;;;2.22;2.03;;;22.50;77.40;;;;;;5073075;28;20025;-78
2023/07/11 00:30:41;;;;;;;2.30;2.10;;;22.50;77.60;;;;;;5061383;28;20498;-78
2023/07/11 00:33:10;;;;;;;1.83;1.73;;;22.40;77.50;;;;;;5071132;28;20032;-78
2023/07/11 00:35:39;;;;;;;2.10;2.00;;;22.40;77.50;;;;;;5075605;28;20035;-78
2023/07/11 00:38:06;;;;;;;1.90;1.80;;;22.40;78.20;;;;;;5073021;28;20027;-77
2023/07/11 00:40:31;;;;;;;2.10;2.00;;;22.40;77.70;;;;;;5064884;28;20021;-79
2023/07/11 00:43:01;;;;;;;1.73;1.63;;;22.30;77.80;;;;;;5069568;28;20052;-78
2023/07/11 00:45:52;;;;;;;1.95;1.85;;;22.30;78.10;;;;;;5071582;28;20078;-78
2023/07/11 00:48:21;;;;;;;2.37;2.17;;;22.30;78.40;;;;;;5063080;28;20048;-77
2023/07/11 00:50:47;;;;;;;2.92;2.67;;;22.20;78.50;;;;;;5072233;28;20031;-78
2023/07/11 00:53:14;;;;;;;2.28;2.08;;;22.20;78.50;;;;;;5073923;28;20032;-76
2023/07/11 00:55:40;;;;;;;2.10;1.90;;;22.20;78.60;;;;;;5070930;28;20029;-77
2023/07/11 00:58:06;;;;;;;2.08;1.98;;;22.20;78.70;;;;;;5072360;28;20420;-79
2023/07/11 01:00:33;;;;;;;2.20;2.10;;;22.10;78.90;;;;;;5075782;28;20114;-78
2023/07/11 01:02:59;;;;;;;2.00;1.90;;;22.10;79.00;;;;;;5077724;28;20059;-78
2023/07/11 01:05:24;;;;;;;2.33;2.15;;;22.00;79.10;;;;;;5075325;28;20030;-77
2023/07/11 01:07:51;;;;;;;2.00;1.90;;;22.00;79.50;;;;;;5075671;28;20036;-77
2023/07/11 01:10:16;;;;;;;1.70;1.60;;;22.00;79.50;;;;;;5075535;28;20025;-77
2023/07/11 01:12:47;;;;;;;1.80;1.70;;;22.00;79.60;;;;;;5075353;28;20096;-77
2023/07/11 01:15:13;;;;;;;2.10;2.00;;;22.00;79.90;;;;;;5075067;28;20494;-77
2023/07/11 01:17:39;;;;;;;2.53;2.33;;;21.90;80.10;;;;;;5075433;28;20036;-77
2023/07/11 01:20:08;;;;;;;1.95;1.85;;;21.90;80.30;;;;;;5075098;28;20116;-78
2023/07/11 01:22:36;;;;;;;1.70;1.60;;;21.80;80.50;;;;;;5075056;28;20449;-78
2023/07/11 01:25:08;;;;;;;1.90;1.80;;;21.90;80.80;;;;;;5074706;28;20409;-78
2023/07/11 01:27:35;;;;;;;2.00;1.90;;;21.80;80.70;;;;;;5073663;28;20035;-77
2023/07/11 01:30:04;;;;;;;2.20;2.10;;;21.80;80.70;;;;;;5075297;28;20020;-76
2023/07/11 01:32:30;;;;;;;1.90;1.80;;;21.80;80.70;;;;;;5075145;28;20020;-76
2023/07/11 01:34:55;;;;;;;2.10;2.00;;;21.70;80.70;;;;;;5074649;28;20020;-78
2023/07/11 01:37:21;;;;;;;1.98;1.88;;;21.70;80.70;;;;;;5074714;28;20452;-78
2023/07/11 01:39:47;;;;;;;1.90;1.80;;;21.70;80.70;;;;;;5074819;28;20031;-77
2023/07/11 01:42:13;;;;;;;1.88;1.77;;;21.70;80.80;;;;;;5076528;28;20036;-78
2023/07/11 01:44:38;;;;;;;2.53;2.33;;;21.60;80.80;;;;;;5074011;28;20055;-77
2023/07/11 01:47:06;;;;;;;1.90;1.80;;;21.60;81.00;;;;;;5075164;28;20350;-78
2023/07/11 01:49:33;;;;;;;2.28;2.10;;;21.50;81.10;;;;;;5075482;28;20023;-78
2023/07/11 01:52:25;;;;;;;2.10;1.98;;;21.50;81.30;;;;;;5074889;28;20385;-78
2023/07/11 01:54:50;;;;;;;;;;;21.50;81.50;;;;;;5073638;28;20115;-78
2023/07/11 01:57:16;;;;;;;2.45;2.25;;;21.50;81.80;;;;;;5075075;28;19947;-77
2023/07/11 01:59:42;;;;;;;2.65;2.45;;;21.40;82.00;;;;;;5076305;28;20516;-77
2023/07/11 02:02:09;;;;;;;2.10;2.00;;;21.40;82.20;;;;;;5077257;28;20469;-75
2023/07/11 02:04:35;;;;;;;2.38;2.17;;;21.30;82.50;;;;;;5074688;28;20128;-78
2023/07/11 02:07:02;;;;;;;2.65;2.45;;;21.30;82.80;;;;;;5074310;28;20078;-77
2023/07/11 02:09:29;;;;;;;2.13;2.03;;;21.30;83.00;;;;;;5066882;28;20025;-77
2023/07/11 02:11:54;;;;;;;2.53;2.33;;;21.30;83.30;;;;;;5054228;28;20151;-77
2023/07/11 02:14:21;;;;;;;2.20;2.10;;;21.20;83.50;;;;;;5056926;28;20048;-77
2023/07/11 02:16:48;;;;;;;2.55;2.35;;;21.20;83.80;;;;;;5054697;28;20040;-77
2023/07/11 02:19:16;;;;;;;2.40;2.20;;;21.20;84.20;;;;;;5054412;28;20037;-77
2023/07/11 02:21:41;;;;;;;2.10;2.00;;;21.10;84.40;;;;;;5072099;28;20509;-77
2023/07/11 02:24:13;;;;;;;2.70;2.50;;;21.10;84.60;;;;;;5073062;28;20028;-77
2023/07/11 02:26:38;;;;;;;2.45;2.25;;;21.10;84.80;;;;;;5074051;28;20043;-78
2023/07/11 02:29:05;;;;;;;2.55;2.35;;;21.10;85.10;;;;;;5074376;28;20100;-77
2023/07/11 02:31:33;;;;;;;3.03;2.72;;;21.10;85.20;;;;;;5074066;28;20013;-78
2023/07/11 02:33:59;;;;;;;2.30;2.15;;;21.00;85.40;;;;;;5079023;28;20056;-77
2023/07/11 02:36:25;;;;;;;2.50;2.30;;;21.00;85.70;;;;;;5074718;28;20113;-78
2023/07/11 02:38:51;;;;;;;2.22;2.13;;;21.00;85.90;;;;;;5074500;28;20119;-77
2023/07/11 02:41:16;;;;;;;2.00;1.90;;;20.90;86.30;;;;;;5076511;28;20068;-77
2023/07/11 02:43:42;;;;;;;2.53;2.33;;;20.90;86.70;;;;;;5074232;28;20496;-77
2023/07/11 02:46:08;;;;;;;2.00;1.90;;;20.90;87.20;;;;;;5073657;28;20480;-78
2023/07/11 02:48:34;;;;;;;2.15;2.05;;;20.90;87.60;;;;;;5074446;28;20013;-77
2023/07/11 02:50:59;;;;;;;2.60;2.40;;;20.90;87.90;;;;;;5076380;28;20369;-77
2023/07/11 02:53:25;;;;;;;2.15;1.95;;;20.90;88.10;;;;;;5073606;28;20457;-78
2023/07/11 02:55:54;;;;;;;2.17;2.08;;;20.90;88.20;;;;;;5074107;28;20036;-77
2023/07/11 02:58:19;;;;;;;2.28;2.10;;;20.90;88.20;;;;;;5073720;28;20063;-78
2023/07/11 03:00:54;;;;;;;2.65;2.45;;;20.90;88.50;;;;;;5073862;28;20016;-78
2023/07/11 03:03:21;;;;;;;2.20;2.10;;;20.80;88.50;;;;;;5075464;28;20368;-77
2023/07/11 03:05:48;;;;;;;2.58;2.38;;;20.80;88.80;;;;;;5075470;28;20504;-76
2023/07/11 03:08:15;;;;;;;2.15;2.05;;;20.80;89.00;;;;;;5074000;28;20024;-77
2023/07/11 03:10:41;;;;;;;2.13;2.00;;;20.70;89.20;;;;;;5075833;28;20074;-77
2023/07/11 03:13:06;;;;;;;2.42;2.22;;;20.70;89.60;;;;;;5076154;28;20032;-76
2023/07/11 03:15:36;;;;;;;2.15;2.05;;;20.70;90.00;;;;;;5075159;28;20020;-78
2023/07/11 03:18:02;;;;;;;2.00;1.90;;;20.70;90.00;;;;;;5075186;28;20109;-78
2023/07/11 03:20:28;;;;;;;1.80;1.70;;;20.60;90.00;;;;;;5075241;28;20062;-78
2023/07/11 03:22:55;;;;;;;2.08;1.90;;;20.60;90.10;;;;;;5075778;28;20062;-78
2023/07/11 03:25:20;;;;;;;2.22;2.03;;;20.70;90.30;;;;;;5073958;28;20052;-78
2023/07/11 03:27:46;;;;;;;1.85;1.75;;;20.70;90.30;;;;;;5074934;28;20024;-78
2023/07/11 03:30:12;;;;;;;2.58;2.38;;;20.60;90.40;;;;;;5079303;28;20024;-77
2023/07/11 03:32:38;;;;;;;2.20;2.10;;;20.60;90.50;;;;;;5076454;28;20020;-77
2023/07/11 03:35:04;;;;;;;2.47;2.28;;;20.70;90.70;;;;;;5073228;28;20027;-78
2023/07/11 03:37:30;;;;;;;2.25;2.15;;;20.60;90.80;;;;;;5073024;28;20017;-78
2023/07/11 03:39:56;;;;;;;2.63;2.42;;;20.60;91.00;;;;;;5073660;28;20025;-78
2023/07/11 03:42:22;;;;;;;1.98;1.88;;;20.70;91.00;;;;;;5072086;28;20478;-78
2023/07/11 03:44:47;;;;;;;2.00;1.90;;;20.70;91.10;;;;;;5072127;28;20032;-77
2023/07/11 03:47:13;;;;;;;2.13;1.92;;;20.60;91.00;;;;;;5073225;28;20474;-77
2023/07/11 03:49:38;;;;;;;2.20;2.03;;;20.70;91.00;;;;;;5075605;28;20128;-78
2023/07/11 03:52:04;;;;;;;1.70;1.60;;;20.70;91.00;;;;;;5073212;28;20435;-78
2023/07/11 03:54:30;;;;;;;1.90;1.80;;;20.70;91.00;;;;;;5072796;28;20027;-78
2023/07/11 03:56:56;;;;;;;1.83;1.73;;;20.70;91.10;;;;;;5075641;28;20038;-77
2023/07/11 03:59:21;;;;;;;2.17;2.08;;;20.70;91.10;;;;;;5076602;28;20028;-77
2023/07/11 04:01:47;;;;;;;2.25;2.05;;;20.70;91.10;;;;;;5073674;28;20059;-77
2023/07/11 04:04:14;;;;;;;1.85;1.75;;;20.70;91.20;;;;;;5072384;28;20093;-79
2023/07/11 04:06:40;;;;;;;2.00;1.90;;;20.80;91.20;;;;;;5074823;28;20039;-77
2023/07/11 04:09:06;;;;;;;2.10;2.00;;;20.80;91.20;;;;;;5072083;28;20111;-77
2023/07/11 04:11:32;;;;;;;2.72;2.53;;;20.90;91.20;;;;;;5055042;28;20060;-78
2023/07/11 04:13:57;;;;;;;1.80;1.70;;;20.90;91.10;;;;;;5054055;28;20021;-78
2023/07/11 04:16:23;;;;;;;1.92;1.83;;;20.90;91.10;;;;;;5052096;28;20536;-78
2023/07/11 04:18:49;;;;;;;1.95;1.85;;;21.00;91.00;;;;;;5055888;28;20036;-77
2023/07/11 04:21:16;;;;;;;1.80;1.70;;;21.10;90.90;;;;;;5073950;28;20127;-76
2023/07/11 04:23:42;;;;;;;2.28;2.08;;;21.10;90.80;;;;;;5075425;28;20107;-80
2023/07/11 04:26:08;;;;;;;2.10;2.00;;;21.10;90.60;;;;;;5078658;28;20056;-78
2023/07/11 04:28:33;;;;;;;2.20;2.10;;;21.20;90.50;;;;;;5077180;28;20032;-78
2023/07/11 04:30:59;;;;;;;2.33;2.22;;;21.30;90.40;;;;;;5077735;28;20028;-78
2023/07/11 04:33:25;;;;;;;2.58;2.38;;;21.30;90.20;;;;;;5073179;28;20264;-78
2023/07/11 04:35:51;;;;;;;1.80;1.70;;;21.40;90.10;;;;;;5075381;28;20089;-77
2023/07/11 04:38:16;;;;;;;2.17;1.98;;;21.40;89.80;;;;;;5075173;28;20028;-77
2023/07/11 04:40:42;;;;;;;2.38;2.20;;;21.50;89.30;;;;;;5074391;28;20090;-77
2023/07/11 04:43:08;;;;;;;2.50;2.30;;;21.60;88.70;;;;;;5080867;28;20037;-77
2023/07/11 04:45:34;;;;;;;2.75;2.55;;;21.70;88.50;;;;;;5079657;28;20039;-78
2023/07/11 04:48:01;;;;;;;2.80;2.50;;;21.70;87.80;;;;;;5076622;28;20027;-78
2023/07/11 04:50:27;;;;;;;2.85;2.65;;;21.90;87.50;;;;;;5074142;28;20522;-78
2023/07/11 04:52:52;;;;;;;2.50;2.30;;;22.00;86.60;;;;;;5072162;28;20123;-77
2023/07/11 04:55:18;;;;;;;2.42;2.33;;;22.00;86.00;;;;;;5073590;28;20072;-78
2023/07/11 04:57:44;;;;;;;1.92;1.83;;;22.10;85.70;;;;;;5075594;28;20044;-77
2023/07/11 05:00:10;;;;;;;2.38;2.28;;;22.10;85.30;;;;;;5074566;28;20024;-77
2023/07/11 05:02:36;;;;;;;2.17;2.08;;;22.30;84.70;;;;;;5071450;28;20396;-77
2023/07/11 05:05:02;;;;;;;2.40;2.20;;;22.40;84.20;;;;;;5071982;28;20025;-78
2023/07/11 05:07:28;;;;;;;2.55;2.35;;;22.50;83.60;;;;;;5074493;28;20023;-77
2023/07/11 05:09:53;;;;;;;2.05;1.95;;;22.50;83.10;;;;;;5070360;28;20028;-78
2023/07/11 05:12:19;;;;;;;2.00;1.90;;;22.60;82.70;;;;;;5075011;28;20020;-78
2023/07/11 05:14:45;;;;;;;2.05;1.95;;;22.90;82.50;;;;;;5075019;28;20025;-77
2023/07/11 05:17:10;;;;;;;2.15;2.05;;;24.00;81.00;;;;;;5073806;28;20028;-78
2023/07/11 05:19:36;;;;;;;1.95;1.85;;;25.50;76.40;;;;;;5074455;28;20066;-78
2023/07/11 05:22:02;;;;;;;1.85;1.75;;;26.80;72.00;;;;;;5073856;28;20063;-77
2023/07/11 05:24:29;;;;;;;1.80;1.70;;;28.10;67.30;;;;;;5074456;28;20472;-78
2023/07/11 05:26:55;;;;;;;1.60;1.50;;;29.10;63.50;;;;;;5087214;28;20077;-78
2023/07/11 05:29:20;;;;;;;1.52;1.50;;;29.90;60.10;;;;;;5090200;28;20025;-78
2023/07/11 05:31:46;;;;;;;1.55;1.50;;;30.60;58.90;;;;;;5087911;28;20386;-77
2023/07/11 05:34:12;;;;;;;1.50;1.50;;;31.40;56.80;;;;;;5077751;28;20024;-77
2023/07/11 05:36:38;;;;;;;1.40;1.40;;;32.20;55.00;;;;;;5078362;28;20028;-79
2023/07/11 05:39:07;;;;;;;0.95;0.95;;;32.90;52.90;;;;;;5071835;28;20107;-77
2023/07/11 05:41:34;;;;;;;1.23;1.23;;;33.50;51.90;;;;;;5063087;28;20078;-77
2023/07/11 05:44:01;;;;;;;1.17;1.17;;;34.10;50.70;;;;;;5072554;28;20028;-77
2023/07/11 05:46:27;;;;;;;1.02;1.02;;;34.60;49.80;;;;;;5073530;28;20028;-75
2023/07/11 05:48:54;;;;;;;1.23;1.23;;;35.30;48.00;;;;;;5054771;28;20493;-76
2023/07/11 05:51:20;;;;;;;1.33;1.33;;;35.90;47.40;;;;;;5055113;28;20017;-76
2023/07/11 05:53:48;;;;;;;1.30;1.30;;;36.50;46.40;;;;;;5074701;28;20377;-75
2023/07/11 05:56:14;;;;;;;1.50;1.50;;;36.80;45.40;;;;;;5074273;28;20158;-76
2023/07/11 05:58:43;;;;;;;1.52;1.52;;;37.20;44.60;;;;;;5075017;28;20029;-76
2023/07/11 06:01:13;;;;;;;1.13;1.13;;;37.50;44.00;;;;;;5073897;28;20377;-76
2023/07/11 06:03:45;;;;;;;1.52;1.52;;;37.80;43.60;;;;;;5075552;28;20033;-76
2023/07/11 06:06:12;;;;;;;1.40;1.40;;;38.10;42.90;;;;;;5075105;28;20032;-76
2023/07/11 06:08:37;;;;;;;1.38;1.38;;;38.30;42.00;;;;;;5074828;28;20046;-76
2023/07/11 06:11:04;;;;;;;1.40;1.40;;;38.50;41.40;;;;;;5062987;28;20037;-77
2023/07/11 06:13:32;;;;;;;1.10;1.10;;;38.70;40.90;;;;;;5067402;28;20069;-76
2023/07/11 06:16:08;;;;;;;1.42;1.42;;;39.00;40.50;;;;;;5075142;28;20063;-76
2023/07/11 06:18:36;;;;;;;1.48;1.48;;;39.30;40.30;;;;;;5078176;28;20020;-77
2023/07/11 06:21:02;;;;;;;1.50;1.50;;;39.40;40.10;;;;;;5083853;28;20028;-77
2023/07/11 06:23:27;;;;;;;1.30;1.30;;;39.30;39.60;;;;;;5095285;28;20036;-75
2023/07/11 06:25:53;;;;;;;1.02;1.02;;;38.80;39.40;;;;;;5093330;28;20074;-77
2023/07/11 06:28:19;;;;;;;1.40;1.40;;;38.70;39.30;;;;;;5094055;28;20013;-76
2023/07/11 06:30:44;;;;;;;1.52;1.52;;;38.80;39.40;;;;;;5093883;28;20029;-76
2023/07/11 06:33:11;;;;;;;1.40;1.40;;;39.00;39.00;;;;;;5085730;28;20021;-76
2023/07/11 06:35:40;;;;;;;1.33;1.33;;;39.10;38.90;;;;;;5073444;28;20062;-76
2023/07/11 06:38:09;;;;;;;1.38;1.38;;;39.10;39.10;;;;;;5061701;28;20059;-76
2023/07/11 06:40:35;;;;;;;1.50;1.50;;;39.30;39.00;;;;;;5066145;28;20509;-76
2023/07/11 06:43:01;;;;;;;1.40;1.40;;;39.00;38.80;;;;;;5069928;28;20032;-75
2023/07/11 06:45:26;;;;;;;1.65;1.55;;;39.10;39.10;;;;;;5072994;28;20043;-76
2023/07/11 06:47:52;;;;;;;1.42;1.42;;;39.30;38.60;;;;;;5064378;28;20449;-75
2023/07/11 06:50:18;;;;;;;1.65;1.60;;;39.30;37.80;;;;;;5074163;28;20039;-75
2023/07/11 06:52:44;;;;;;;1.40;1.40;;;39.00;37.70;;;;;;5074731;28;20052;-76
2023/07/11 06:55:10;;;;;;;1.40;1.40;;;39.20;37.60;;;;;;5073403;28;20111;-77
2023/07/11 06:57:36;;;;;;;1.38;1.38;;;39.30;37.10;;;;;;5071781;28;20025;-76
2023/07/11 07:00:02;;;;;;;1.77;1.70;;;39.30;36.90;;;;;;5073440;28;20054;-76
2023/07/11 07:02:28;;;;;;;1.77;1.77;;;39.00;37.30;;;;;;5074639;28;20028;-77
2023/07/11 07:04:55;;;;;;;2.30;2.20;;;;;;;;;;5076799;28;20020;-76
2023/07/11 07:07:21;;;;;;;1.92;1.83;;;38.70;36.50;;;;;;5075757;28;20059;-76
2023/07/11 07:09:46;;;;;;;2.17;2.08;;;38.80;37.40;;;;;;5073038;28;20358;-76
2023/07/11 07:12:16;;;;;;;2.50;2.40;;;38.90;37.30;;;;;;5065831;28;20025;-76
2023/07/11 07:14:41;;;;;;;2.05;1.95;;;39.00;37.50;;;;;;5067576;28;20036;-76
2023/07/11 07:17:07;;;;;;;1.92;1.85;;;39.30;37.40;;;;;;5054437;28;20047;-75
2023/07/11 07:19:32;;;;;;;1.80;1.73;;;39.40;37.20;;;;;;5054998;28;20130;-76
2023/07/11 07:21:58;;;;;;;2.00;1.90;;;38.90;37.10;;;;;;5054797;28;20025;-75
2023/07/11 07:24:24;;;;;;;1.63;1.60;;;37.20;37.90;;;;;;5068943;28;20095;-76
2023/07/11 07:26:49;;;;;;;1.88;1.77;;;35.10;40.00;;;;;;5074449;28;20047;-77
2023/07/11 07:29:16;;;;;;;1.98;1.88;;;;;;;;;;5075311;28;20458;-75
2023/07/11 07:31:41;;;;;;;1.92;1.83;;;31.70;43.80;;;;;;5073903;28;20381;-76
2023/07/11 07:34:07;;;;;;;2.03;1.92;;;30.60;46.20;;;;;;5073679;28;20028;-76
2023/07/11 07:36:33;;;;;;;2.10;2.00;;;29.90;47.60;;;;;;5073845;28;20052;-76
2023/07/11 07:38:59;;;;;;;2.35;2.25;;;29.40;48.60;;;;;;5073714;28;20032;-75
2023/07/11 07:41:25;;;;;;;4.18;3.78;;;29.00;49.00;;;;;;5073642;28;20035;-75
2023/07/11 07:43:51;;;;;;;4.50;4.10;;;28.60;49.20;;;;;;5074372;28;20020;-76
2023/07/11 07:46:18;;;;;;;3.88;3.58;;;28.30;49.70;;;;;;5073201;28;20035;-76
2023/07/11 07:48:44;;;;;;;3.88;3.58;;;28.10;50.20;;;;;;5074124;28;20096;-76
2023/07/11 07:51:16;;;;;;;4.60;4.13;;;28.10;50.90;;;;;;5074669;28;20066;-75
2023/07/11 07:53:41;;;;;;;;;;;28.10;51.40;;;;;;5073896;28;20104;-76
2023/07/11 07:56:20;;;;;;;4.03;3.65;;;28.10;51.80;;;;;;5072576;28;19940;-75
2023/07/11 07:58:46;;;;;;;4.15;3.75;;;28.10;51.90;;;;;;5075120;28;20054;-76
2023/07/11 08:01:14;;;;;;;4.00;3.70;;;28.10;51.80;;;;;;5072792;28;20035;-76
2023/07/11 08:03:40;;;;;;;3.88;3.58;;;28.10;52.00;;;;;;5072923;28;20433;-76
2023/07/11 08:06:07;;;;;;;4.45;4.00;;;28.10;52.20;;;;;;5072321;28;20381;-75
2023/07/11 08:08:33;;;;;;;4.78;4.38;;;28.10;51.90;;;;;;5072959;28;20020;-75
2023/07/11 08:11:03;;;;;;;6.38;4.72;;;28.10;52.00;;;;;;5061734;28;20048;-76
2023/07/11 08:13:30;;;;;;;6.82;5.32;;;28.20;51.90;;;;;;5052975;28;20056;-76
2023/07/11 08:15:55;;;;;;;5.43;4.90;;;28.20;51.90;;;;;;5067964;28;20056;-76
2023/07/11 08:18:21;;;;;;;7.85;5.68;;;28.20;52.20;;;;;;5073144;28;20413;-76
2023/07/11 08:20:47;;;;;;;6.18;5.57;;;28.20;52.10;;;;;;5075245;28;20020;-76
2023/07/11 08:23:12;;;;;;;5.03;4.53;;;28.30;52.40;;;;;;5075050;28;20021;-76
2023/07/11 08:25:40;;;;;;;5.93;5.07;;;28.40;52.60;;;;;;5075077;28;20038;-76
2023/07/11 08:28:05;;;;;;;4.70;4.22;;;28.50;52.30;;;;;;5074125;28;20043;-76
2023/07/11 08:30:41;;;;;;;5.20;4.53;;;28.60;52.40;;;;;;5072656;28;20469;-75
2023/07/11 08:33:07;;;;;;;4.55;4.15;;;28.70;52.30;;;;;;5074881;28;20032;-75
2023/07/11 08:35:32;;;;;;;4.60;4.20;;;28.90;52.20;;;;;;5070291;28;20032;-76
2023/07/11 08:37:58;;;;;;;4.68;4.28;;;29.00;52.40;;;;;;5072842;28;20032;-76
2023/07/11 08:40:29;;;;;;;4.85;4.40;;;29.00;52.60;;;;;;5067144;28;20028;-76
2023/07/11 08:42:55;;;;;;;4.40;4.00;;;29.10;52.60;;;;;;5053998;28;20028;-76
2023/07/11 08:45:32;;;;;;;4.13;3.83;;;29.20;52.60;;;;;;5054527;28;20035;-77
2023/07/11 08:48:13;;;;;;;4.22;3.83;;;29.40;52.50;;;;;;5072710;28;20104;-76
2023/07/11 08:50:56;;;;;;;5.45;4.45;;;29.50;52.10;;;;;;5069311;28;20378;-76
2023/07/11 08:53:30;;;;;;;5.82;4.40;;;29.60;51.70;;;;;;5072736;28;20046;-77
2023/07/11 08:56:03;;;;;;;5.25;4.45;;;29.60;51.90;;;;;;5058497;28;20486;-75
2023/07/11 08:58:33;;;;;;;5.07;4.68;;;29.70;51.80;;;;;;5072910;28;20029;-76
2023/07/11 09:01:04;;;;;;;4.90;4.50;;;29.90;51.90;;;;;;5074806;28;20389;-77
2023/07/11 09:03:34;;;;;;;5.63;5.07;;;29.90;51.70;;;;;;5076256;28;20096;-76
2023/07/11 09:06:07;;;;;;;4.78;4.30;;;30.00;51.60;;;;;;5074929;28;20025;-77
2023/07/11 09:08:37;;;;;;;4.32;4.03;;;30.10;51.60;;;;;;5075354;28;20023;-75
2023/07/11 09:11:17;;;;;;;4.50;4.15;;;30.20;51.80;;;;;;5067661;28;20087;-77
2023/07/11 09:14:00;;;;;;;4.28;3.92;;;30.30;51.80;;;;;;5072420;28;20466;-76
2023/07/11 09:16:49;;;;;;;5.10;4.68;;;30.50;51.50;;;;;;5073016;28;20036;-76
2023/07/11 09:19:42;;;;;;;5.63;4.65;;;30.60;51.30;;;;;;5078304;28;20388;-76
2023/07/11 09:22:32;;;;;;;6.35;5.60;;;30.60;51.30;;;;;;5080768;28;20028;-77
2023/07/11 09:25:16;;;;;;;5.38;4.90;;;30.80;51.20;;;;;;5093462;28;20025;-77
2023/07/11 09:27:53;;;;;;;9.07;5.85;;;30.90;51.30;;;;;;5098488;28;20025;-75
2023/07/11 09:30:29;;;;;;;7.35;6.18;;;31.00;51.10;;;;;;5098602;28;20013;-76
2023/07/11 09:33:01;;;;;;;7.00;5.78;;;;;;;;;;5098613;28;20009;-75
2023/07/11 09:35:31;;;;;;;7.03;5.63;;;31.00;50.40;;;;;;5098712;28;20029;-78
2023/07/11 09:38:34;;;;;;;5.95;5.45;;;31.00;50.80;;;;;;5094778;28;20033;-76
2023/07/11 09:41:03;;;;;;;5.10;4.60;;;31.10;50.40;;;;;;5064096;28;20037;-76
2023/07/11 09:43:29;;;;;;;4.93;4.53;;;31.20;50.50;;;;;;5058538;28;20112;-75
2023/07/11 09:45:55;;;;;;;5.50;5.00;;;31.30;50.60;;;;;;5055462;28;20051;-75
2023/07/11 09:48:29;;;;;;;5.57;5.05;;;31.40;50.00;;;;;;5063089;28;20474;-77
2023/07/11 09:51:11;;;;;;;5.43;4.93;;;31.60;49.40;;;;;;5075823;28;20055;-75
2023/07/11 09:53:42;;;;;;;5.18;4.78;;;31.80;48.70;;;;;;5076343;28;20029;-76
2023/07/11 09:56:12;;;;;;;;;;;32.00;48.30;;;;;;5075489;28;20020;-76
2023/07/11 09:58:37;;;;;;;4.60;4.25;;;32.20;48.00;;;;;;5075349;28;19969;-77
2023/07/11 10:01:07;;;;;;;5.20;4.80;;;32.40;47.90;;;;;;5074875;28;20099;-76
2023/07/11 10:03:35;;;;;;;6.35;4.80;;;32.50;48.00;;;;;;5073976;28;20113;-77
2023/07/11 10:06:03;;;;;;;8.90;4.53;;;32.60;47.60;;;;;;5074253;28;20017;-76
2023/07/11 10:08:36;;;;;;;5.45;4.97;;;32.60;47.40;;;;;;5075293;28;20082;-76
2023/07/11 10:11:05;;;;;;;7.05;6.15;;;32.60;47.30;;;;;;5067041;28;20028;-77
2023/07/11 10:13:31;;;;;;;6.93;5.90;;;32.60;47.20;;;;;;5074656;28;20021;-77
2023/07/11 10:15:58;;;;;;;5.82;5.28;;;32.80;46.80;;;;;;5074491;28;20051;-77
2023/07/11 10:18:30;;;;;;;5.38;4.88;;;32.80;46.60;;;;;;5075100;28;20021;-76
2023/07/11 10:21:21;;;;;;;6.10;5.57;;;32.90;46.50;;;;;;5075462;28;20020;-76
2023/07/11 10:23:49;;;;;;;5.75;5.25;;;32.80;46.40;;;;;;5074239;28;20075;-77
2023/07/11 10:26:26;;;;;;;6.38;5.78;;;32.80;46.60;;;;;;5074380;28;20037;-76
2023/07/11 10:29:07;;;;;;;5.53;5.07;;;32.90;46.20;;;;;;5075801;28;20107;-76
2023/07/11 10:31:36;;;;;;;;;;;32.90;46.30;;;;;;5075897;28;20020;-76
2023/07/11 10:34:07;;;;;;;5.95;5.45;;;33.00;46.30;;;;;;5074862;28;19909;-76
2023/07/11 10:36:46;;;;;;;5.00;4.60;;;33.00;46.00;;;;;;5075805;28;20126;-76
2023/07/11 10:39:17;;;;;;;6.50;5.75;;;32.90;46.00;;;;;;5076076;28;20028;-76
2023/07/11 10:41:58;;;;;;;6.10;5.60;;;33.00;45.90;;;;;;5076692;28;20039;-77
2023/07/11 10:44:30;;;;;;;;;;;33.10;45.70;;;;;;5075733;28;20032;-76
2023/07/11 10:46:56;;;;;;;7.15;6.30;;;33.10;45.50;;;;;;5073144;28;19912;-77
2023/07/11 10:49:35;;;;;;;9.60;7.47;;;33.10;45.60;;;;;;5076731;28;20033;-76
2023/07/11 10:52:21;;;;;;;6.43;5.82;;;32.90;45.70;;;;;;5075248;28;20017;-76
2023/07/11 10:55:22;;;;;;;6.55;5.95;;;33.10;45.90;;;;;;5074356;28;20020;-77
2023/07/11 10:57:52;;;;;;;5.63;5.22;;;33.30;45.60;;;;;;5061613;28;20393;-77
2023/07/11 11:00:27;;;;;;;5.88;5.38;;;33.50;45.10;;;;;;5074489;28;20401;-75
2023/07/11 11:03:20;;;;;;;5.65;5.15;;;33.70;45.00;;;;;;5074744;28;20013;-75
2023/07/11 11:06:02;;;;;;;5.30;4.90;;;33.70;44.80;;;;;;5074770;28;20025;-76
2023/07/11 11:08:55;;;;;;;5.82;5.32;;;33.60;44.60;;;;;;5074821;28;20031;-75
2023/07/11 11:11:23;;;;;;;6.72;5.47;;;33.40;44.50;;;;;;5069724;28;20032;-77
2023/07/11 11:14:09;;;;;;;5.97;5.47;;;33.30;44.70;;;;;;5074723;28;20027;-76
2023/07/11 11:16:40;;;;;;;5.43;5.03;;;33.30;45.30;;;;;;5074578;28;20081;-75
2023/07/11 11:19:34;;;;;;;5.40;5.00;;;33.50;45.00;;;;;;5054470;28;20486;-76
2023/07/11 11:22:22;;;;;;;6.45;5.60;;;33.70;44.50;;;;;;5054565;28;20028;-77
2023/07/11 11:24:52;;;;;;;7.22;6.53;;;33.60;44.00;;;;;;5053859;28;20040;-76
2023/07/11 11:27:45;;;;;;;7.70;5.97;;;33.60;44.00;;;;;;5073856;28;20052;-77
2023/07/11 11:30:39;;;;;;;6.38;5.78;;;33.30;44.50;;;;;;5073827;28;20040;-76
2023/07/11 11:33:22;;;;;;;6.43;5.75;;;33.40;44.40;;;;;;5074395;28;20040;-75
2023/07/11 11:36:15;;;;;;;6.95;5.93;;;33.70;44.40;;;;;;5073021;28;20021;-77
2023/07/11 11:38:56;;;;;;;6.50;5.65;;;34.00;43.90;;;;;;5073608;28;20020;-77
2023/07/11 11:41:39;;;;;;;5.72;5.22;;;34.40;43.40;;;;;;5071424;28;20035;-77
2023/07/11 11:44:21;;;;;;;5.90;5.43;;;34.60;43.20;;;;;;5075508;28;20097;-76
2023/07/11 11:46:48;;;;;;;5.38;4.95;;;34.70;42.80;;;;;;5073582;28;20512;-76
2023/07/11 11:49:15;;;;;;;5.60;5.10;;;34.90;42.20;;;;;;5073085;28;20062;-76
2023/07/11 11:51:43;;;;;;;5.30;4.85;;;35.10;41.80;;;;;;5072742;28;20107;-76
2023/07/11 11:54:11;;;;;;;4.90;4.50;;;35.40;41.20;;;;;;5073047;28;20090;-77
2023/07/11 11:56:43;;;;;;;4.88;4.47;;;35.50;41.30;;;;;;5071111;28;20362;-76
2023/07/11 11:59:27;;;;;;;5.60;5.10;;;35.40;41.10;;;;;;5072466;28;20032;-76
2023/07/11 12:02:17;;;;;;;6.57;5.35;;;35.40;41.30;;;;;;5073577;28;20031;-76
2023/07/11 12:05:01;;;;;;;5.28;4.88;;;35.40;41.30;;;;;;5072889;28;20504;-76
2023/07/11 12:07:29;;;;;;;5.75;5.22;;;35.50;41.50;;;;;;5072660;28;20040;-76
2023/07/11 12:09:56;;;;;;;6.25;5.32;;;35.50;41.10;;;;;;5088587;28;20032;-76
2023/07/11 12:12:45;;;;;;;5.95;5.28;;;35.50;41.30;;;;;;5072688;28;20044;-77
2023/07/11 12:15:10;;;;;;;6.50;5.28;;;35.50;41.30;;;;;;5073746;28;20031;-76
2023/07/11 12:17:38;;;;;;;10.25;5.45;;;35.70;40.90;;;;;;5073478;28;20443;-76
2023/07/11 12:20:12;;;;;;;7.22;5.32;;;35.70;40.70;;;;;;5075278;28;20382;-76
2023/07/11 12:22:37;;;;;;;5.82;5.32;;;35.50;40.90;;;;;;5080884;28;20028;-76
2023/07/11 12:25:06;;;;;;;6.75;5.63;;;35.40;41.40;;;;;;5089298;28;20090;-76
2023/07/11 12:27:35;;;;;;;6.13;5.63;;;35.20;41.40;;;;;;5089555;28;20028;-77
2023/07/11 12:30:14;;;;;;;7.65;5.45;;;35.10;41.70;;;;;;5089408;28;20029;-76
2023/07/11 12:32:46;;;;;;;6.38;5.78;;;34.80;42.00;;;;;;5090433;28;20035;-76
2023/07/11 12:35:14;;;;;;;5.88;5.38;;;34.60;42.50;;;;;;5092578;28;20019;-76
2023/07/11 12:38:02;;;;;;;5.75;5.20;;;34.50;42.90;;;;;;5082252;28;20021;-76
2023/07/11 12:40:49;;;;;;;5.35;4.95;;;34.30;42.70;;;;;;5071755;28;20097;-76
2023/07/11 12:43:36;;;;;;;6.20;5.60;;;33.90;43.50;;;;;;5074110;28;20090;-76
2023/07/11 12:46:27;;;;;;;9.02;5.80;;;33.40;44.20;;;;;;5053037;28;20040;-76
2023/07/11 12:48:54;;;;;;;5.53;5.03;;;33.10;44.10;;;;;;5081369;28;20044;-76
2023/07/11 12:51:26;;;;;;;7.30;5.50;;;33.00;44.50;;;;;;5073802;28;20505;-77
2023/07/11 12:54:00;;;;;;;7.28;6.05;;;33.00;44.50;;;;;;5074428;28;20078;-76
2023/07/11 12:56:28;;;;;;;6.63;4.90;;;33.00;44.30;;;;;;5079337;28;20078;-76
2023/07/11 12:58:53;;;;;;;5.32;4.82;;;33.30;44.30;;;;;;5076907;28;20355;-77
2023/07/11 13:01:19;;;;;;;6.00;5.50;;;33.70;43.80;;;;;;5078538;28;20039;-76